Carlisle, United Kingdom
Current Conditions -  °F | °C
As of 6:50 PM on Saturday 20 Dec 2014 (Local Time) from EGOM Reporting Station
Haze Haze  
Wind Chill: 32°   Ceiling: 300
Heat Index: 39°   Visibility: 5mi
Dew Point: 39°   Wind: 10mph
Humidity: 100%   Direction: 250°WSW
Pressure: 30.21"   Gusts: NA
Location:  54.9°N, 2.93°W
Report Text: EGOM 201850Z AUTO 25009KT 8000 BR BKN003/// BKN160/// 04/04 Q1023
Loading
Personal Weather Stations






























Interactive Weather Map New forecast layout! Learn more

10-Day Weather Forecast

Advertisements
Track Severe Weather on mobile